Time;durP1;ratioP1;P1;durP2;ratioP2;P2;SDS_P1;SDS_P2;PMS_P1;PMS_P2;Temp;Humidity;BMP_temperature;BMP_pressure;BME280_temperature;BME280_humidity;BME280_pressure;Samples;Min_cycle;Max_cycle;Signal;HPM_P1;HPM_P2
2022/01/31 00:00:15;;;;;;;16.23;4.38;;;4.70;99.90;;;;;;4983807;28;20077;-80
2022/01/31 00:02:42;;;;;;;11.73;4.45;;;4.70;99.90;;;;;;4989693;28;20142;-79
2022/01/31 00:05:08;;;;;;;14.38;5.00;;;4.70;99.90;;;;;;5001852;28;20045;-80
2022/01/31 00:07:34;;;;;;;17.15;5.40;;;4.70;99.90;;;;;;4982498;28;20054;-80
2022/01/31 00:10:05;;;;;;;19.25;5.32;;;4.70;99.90;;;;;;5015954;28;20042;-78
2022/01/31 00:12:35;;;;;;;24.77;6.30;;;4.70;99.90;;;;;;4973986;28;20050;-79
2022/01/31 00:15:03;;;;;;;13.43;5.72;;;4.70;99.90;;;;;;4987400;28;20061;-79
2022/01/31 00:17:29;;;;;;;17.77;5.80;;;4.70;99.90;;;;;;5005363;28;20054;-79
2022/01/31 00:19:55;;;;;;;17.13;5.38;;;4.70;99.90;;;;;;4982886;28;20045;-79
2022/01/31 00:22:20;;;;;;;12.85;6.22;;;4.60;99.90;;;;;;4981094;28;20495;-79
2022/01/31 00:24:46;;;;;;;17.80;5.93;;;4.60;99.90;;;;;;4999913;28;20046;-79
2022/01/31 00:27:12;;;;;;;13.98;5.90;;;4.60;99.90;;;;;;4984232;28;20046;-79
2022/01/31 00:29:38;;;;;;;16.67;6.20;;;4.60;99.90;;;;;;4983650;28;20044;-79
2022/01/31 00:32:04;;;;;;;18.55;6.78;;;4.60;99.90;;;;;;4972329;28;20054;-78
2022/01/31 00:34:31;;;;;;;19.15;5.90;;;4.60;99.90;;;;;;4987556;28;20137;-79
2022/01/31 00:36:57;;;;;;;19.42;6.32;;;4.60;99.90;;;;;;5013694;28;20208;-78
2022/01/31 00:39:22;;;;;;;19.15;5.70;;;4.60;99.90;;;;;;4979237;28;20510;-79
2022/01/31 00:41:48;;;;;;;16.52;6.55;;;4.50;99.90;;;;;;4964899;28;20053;-79
2022/01/31 00:47:17;;;;;;;14.48;4.22;;;4.60;99.90;;;;;;4963918;28;20054;-78
2022/01/31 00:51:58;;;;;;;14.82;4.78;;;4.60;99.90;;;;;;4981882;28;20137;-79
2022/01/31 00:54:24;;;;;;;11.02;3.72;;;5.40;99.90;;;;;;4981288;28;20044;-79
2022/01/31 00:56:51;;;;;;;14.35;3.47;;;4.60;99.90;;;;;;4982288;28;20053;-79
2022/01/31 00:59:17;;;;;;;14.50;2.75;;;4.60;99.90;;;;;;5015646;28;20054;-79
2022/01/31 01:01:43;;;;;;;12.63;2.30;;;4.60;99.90;;;;;;4988497;28;20128;-79
2022/01/31 01:04:09;;;;;;;9.38;2.08;;;4.50;99.90;;;;;;4983238;28;20121;-79
2022/01/31 01:06:35;;;;;;;11.25;2.20;;;4.50;99.90;;;;;;4981906;28;20056;-80
2022/01/31 01:09:00;;;;;;;7.18;2.10;;;4.40;99.90;;;;;;5015874;28;20054;-79
2022/01/31 01:11:26;;;;;;;7.47;2.47;;;4.40;99.90;;;;;;4981796;28;20372;-79
2022/01/31 01:13:52;;;;;;;7.63;2.03;;;4.40;99.90;;;;;;4953722;28;20049;-80
2022/01/31 01:16:18;;;;;;;7.03;2.05;;;4.30;99.90;;;;;;4990214;28;20057;-79
2022/01/31 01:18:44;;;;;;;7.07;2.10;;;4.30;99.90;;;;;;4956398;28;20140;-80
2022/01/31 01:21:09;;;;;;;9.13;2.30;;;5.00;99.90;;;;;;4997088;28;20088;-79
2022/01/31 01:23:35;;;;;;;5.22;1.85;;;4.30;99.90;;;;;;4998552;28;20049;-79
2022/01/31 01:26:01;;;;;;;8.57;2.42;;;4.30;99.90;;;;;;4987568;28;20140;-80
2022/01/31 01:28:27;;;;;;;6.00;2.33;;;4.90;99.90;;;;;;5012521;28;20133;-79
2022/01/31 01:30:55;;;;;;;9.13;2.50;;;4.30;99.90;;;;;;4981326;28;20589;-79
2022/01/31 01:33:22;;;;;;;11.43;2.38;;;4.40;99.90;;;;;;4988957;28;20490;-81
2022/01/31 01:35:50;;;;;;;8.85;2.70;;;4.40;99.90;;;;;;4980077;28;20054;-79
2022/01/31 01:38:18;;;;;;;10.75;3.03;;;4.40;99.90;;;;;;4998210;28;20056;-80
2022/01/31 01:40:46;;;;;;;13.63;2.60;;;4.50;99.90;;;;;;4998157;28;20053;-79
2022/01/31 01:43:14;;;;;;;9.88;2.72;;;5.20;99.90;;;;;;4983084;28;20463;-80
2022/01/31 01:45:42;;;;;;;10.88;3.03;;;4.60;99.90;;;;;;4999110;28;20042;-80
2022/01/31 01:48:10;;;;;;;19.17;3.80;;;4.70;99.90;;;;;;4999949;28;20057;-81
2022/01/31 01:50:40;;;;;;;13.95;3.03;;;4.70;99.90;;;;;;4998212;28;20107;-80
2022/01/31 01:53:07;;;;;;;13.98;4.05;;;4.80;99.90;;;;;;4991698;28;20092;-81
2022/01/31 01:55:33;;;;;;;18.73;4.22;;;4.90;99.90;;;;;;5001844;28;20058;-80
2022/01/31 01:57:59;;;;;;;21.40;4.68;;;5.00;99.90;;;;;;4984513;28;20071;-80
2022/01/31 02:00:26;;;;;;;28.00;5.68;;;5.00;99.90;;;;;;4974568;28;20045;-81
2022/01/31 02:02:54;;;;;;;29.33;5.70;;;5.10;99.90;;;;;;4990571;28;20049;-80
2022/01/31 02:05:20;;;;;;;23.17;6.03;;;5.30;99.90;;;;;;5000689;28;20140;-80
2022/01/31 02:07:46;;;;;;;22.55;5.57;;;5.90;99.90;;;;;;5000096;28;20090;-79
2022/01/31 02:10:14;;;;;;;23.55;5.82;;;5.50;99.90;;;;;;4974860;28;20043;-80
2022/01/31 02:12:45;;;;;;;18.92;4.53;;;6.40;99.90;;;;;;4998414;28;20065;-80
2022/01/31 02:15:12;;;;;;;22.10;4.35;;;5.80;99.90;;;;;;5002701;28;20115;-80
2022/01/31 02:17:38;;;;;;;24.05;4.85;;;5.90;99.90;;;;;;4973661;28;20050;-80
2022/01/31 02:20:06;;;;;;;18.85;4.90;;;6.00;99.90;;;;;;4984590;28;20100;-80
2022/01/31 02:22:32;;;;;;;23.45;4.85;;;6.00;99.90;;;;;;5000415;28;20077;-81
2022/01/31 02:24:58;;;;;;;25.85;5.28;;;6.10;99.90;;;;;;4985300;28;20108;-80
2022/01/31 02:27:32;;;;;;;21.00;4.32;;;6.20;99.90;;;;;;5001632;28;20045;-78
2022/01/31 02:29:59;;;;;;;21.52;4.90;;;6.10;99.90;;;;;;4991068;28;20470;-78
2022/01/31 02:32:24;;;;;;;18.45;4.90;;;6.20;99.90;;;;;;4998896;28;20069;-79
2022/01/31 02:34:51;;;;;;;24.40;5.15;;;6.10;99.90;;;;;;4984095;28;20422;-78
2022/01/31 02:37:21;;;;;;;24.13;4.97;;;6.10;99.90;;;;;;4975591;28;20049;-78
2022/01/31 02:39:46;;;;;;;24.23;5.97;;;6.20;99.90;;;;;;5000532;28;20054;-78
2022/01/31 02:42:13;;;;;;;22.52;4.43;;;6.20;99.90;;;;;;4971060;28;20052;-78
2022/01/31 02:44:44;;;;;;;20.08;4.18;;;6.20;99.90;;;;;;4971669;28;21705;-79
2022/01/31 02:47:15;;;;;;;18.48;4.30;;;6.30;99.90;;;;;;4970803;28;20212;-80
2022/01/31 02:49:49;;;;;;;15.32;4.07;;;6.20;99.90;;;;;;4989720;28;20093;-78
2022/01/31 02:52:16;;;;;;;15.23;4.03;;;6.30;99.90;;;;;;4989947;28;20696;-79
2022/01/31 02:54:43;;;;;;;17.55;3.92;;;6.30;99.90;;;;;;4982774;28;20519;-79
2022/01/31 02:57:09;;;;;;;17.15;4.82;;;6.30;99.90;;;;;;4990549;28;20387;-79
2022/01/31 02:59:35;;;;;;;21.10;3.65;;;6.30;99.90;;;;;;4983654;28;20112;-79
2022/01/31 03:02:00;;;;;;;18.02;3.83;;;6.30;99.90;;;;;;4987805;28;20147;-80
2022/01/31 03:04:26;;;;;;;24.77;4.40;;;6.30;99.90;;;;;;4989776;28;20050;-80
2022/01/31 03:06:53;;;;;;;21.70;4.38;;;6.30;99.90;;;;;;4972873;28;20054;-80
2022/01/31 03:09:19;;;;;;;23.90;4.20;;;6.30;99.90;;;;;;4958530;28;20049;-79
2022/01/31 03:11:45;;;;;;;20.20;4.03;;;6.30;99.90;;;;;;5012658;28;20065;-78
2022/01/31 03:14:15;;;;;;;16.65;3.78;;;6.30;99.90;;;;;;4967528;28;20080;-79
2022/01/31 03:16:45;;;;;;;26.25;4.03;;;6.30;99.90;;;;;;5017438;28;20096;-79
2022/01/31 03:19:11;;;;;;;15.57;4.60;;;6.20;99.90;;;;;;4976638;28;20069;-78
2022/01/31 03:21:37;;;;;;;20.50;3.53;;;6.20;99.90;;;;;;4982781;28;20057;-80
2022/01/31 03:24:04;;;;;;;18.20;4.75;;;6.20;99.90;;;;;;5003365;28;20047;-79
2022/01/31 03:26:30;;;;;;;22.20;3.60;;;6.20;99.90;;;;;;5000301;28;20181;-79
2022/01/31 03:28:56;;;;;;;22.17;3.53;;;6.20;99.90;;;;;;4973887;28;20144;-80
2022/01/31 03:31:22;;;;;;;15.32;3.08;;;6.20;99.90;;;;;;4972099;28;20057;-79
2022/01/31 03:33:49;;;;;;;20.52;3.65;;;6.20;99.90;;;;;;4989208;28;20041;-79
2022/01/31 03:36:15;;;;;;;16.48;3.65;;;6.20;99.90;;;;;;5000019;28;20045;-79
2022/01/31 03:38:41;;;;;;;20.08;4.80;;;6.20;99.90;;;;;;4972704;28;20057;-82
2022/01/31 03:41:12;;;;;;;19.33;4.00;;;6.20;99.90;;;;;;4999475;28;20050;-80
2022/01/31 03:43:38;;;;;;;21.70;4.25;;;6.10;99.90;;;;;;5004445;28;20097;-80
2022/01/31 03:46:04;;;;;;;14.35;3.72;;;6.10;99.90;;;;;;4981920;28;20073;-80
2022/01/31 03:48:31;;;;;;;17.65;3.28;;;6.10;99.90;;;;;;4972070;28;20050;-79
2022/01/31 03:50:57;;;;;;;18.95;3.45;;;6.10;99.90;;;;;;4989930;28;20066;-79
2022/01/31 03:53:23;;;;;;;17.00;3.38;;;6.10;99.90;;;;;;5001079;28;20049;-79
2022/01/31 03:55:49;;;;;;;16.17;3.47;;;6.10;99.90;;;;;;4982631;28;20542;-79
2022/01/31 03:58:14;;;;;;;24.00;3.72;;;6.10;99.90;;;;;;4998968;28;20046;-80
2022/01/31 04:00:41;;;;;;;19.38;3.50;;;6.80;99.90;;;;;;4997942;28;20165;-80
2022/01/31 04:03:07;;;;;;;23.88;4.30;;;6.80;99.90;;;;;;4983913;28;20087;-79
2022/01/31 04:05:33;;;;;;;23.73;3.83;;;6.00;99.90;;;;;;4985464;28;20104;-80
2022/01/31 04:08:01;;;;;;;23.30;4.15;;;5.90;99.90;;;;;;4984139;28;20034;-79
2022/01/31 04:10:27;;;;;;;25.20;5.03;;;5.90;99.90;;;;;;4989060;28;20053;-79
2022/01/31 04:12:52;;;;;;;25.23;4.45;;;6.10;99.90;;;;;;4986295;28;20053;-78
2022/01/31 04:15:18;;;;;;;23.25;4.75;;;5.90;99.90;;;;;;5015194;28;20054;-78
2022/01/31 04:17:45;;;;;;;12.63;2.17;;;6.20;99.90;;;;;;4998017;28;20054;-81
2022/01/31 04:20:11;;;;;;;15.98;2.53;;;5.90;99.90;;;;;;5016994;28;20058;-79
2022/01/31 04:22:45;;;;;;;12.13;2.45;;;5.70;99.90;;;;;;4998610;28;20514;-80
2022/01/31 04:25:27;;;;;;;17.13;2.55;;;5.60;99.90;;;;;;5015842;28;20082;-80
2022/01/31 04:28:01;;;;;;;13.40;2.45;;;5.40;99.90;;;;;;4975092;28;20087;-78
2022/01/31 04:30:31;;;;;;;13.05;2.28;;;5.30;99.90;;;;;;4973656;28;20061;-80
2022/01/31 04:32:57;;;;;;;17.05;2.88;;;5.20;99.90;;;;;;4971522;28;20095;-79
2022/01/31 04:35:23;;;;;;;15.20;2.60;;;5.40;99.90;;;;;;4972472;28;20050;-79
2022/01/31 04:37:48;;;;;;;18.20;3.13;;;5.20;99.90;;;;;;4987475;28;20077;-78
2022/01/31 04:40:15;;;;;;;19.85;3.22;;;5.20;99.90;;;;;;5014709;28;20522;-80
2022/01/31 04:42:43;;;;;;;12.55;2.42;;;5.20;99.90;;;;;;4979447;28;20057;-80
2022/01/31 04:45:09;;;;;;;14.63;2.80;;;5.30;99.90;;;;;;4965459;28;20052;-80
2022/01/31 04:47:35;;;;;;;21.98;2.58;;;5.20;99.90;;;;;;4974032;28;20126;-79
2022/01/31 04:50:01;;;;;;;19.23;2.85;;;5.90;99.90;;;;;;5014893;28;20141;-80
2022/01/31 04:52:27;;;;;;;12.35;2.47;;;5.20;99.90;;;;;;4998140;28;20096;-79
2022/01/31 04:54:52;;;;;;;14.20;2.72;;;6.30;99.90;;;;;;4983662;28;20046;-79
2022/01/31 04:57:18;;;;;;;10.32;2.38;;;6.00;99.90;;;;;;4990961;28;20044;-80
2022/01/31 04:59:44;;;;;;;16.35;2.78;;;5.50;99.90;;;;;;4979684;28;20042;-79
2022/01/31 05:02:10;;;;;;;19.70;3.03;;;5.30;99.90;;;;;;4955624;28;20125;-79
2022/01/31 05:04:36;;;;;;;20.27;3.95;;;5.30;99.90;;;;;;4954719;28;20042;-80
2022/01/31 05:07:02;;;;;;;19.42;3.33;;;5.30;99.90;;;;;;4963660;28;20053;-79
2022/01/31 05:09:28;;;;;;;21.15;4.40;;;5.30;99.90;;;;;;4987459;28;20077;-79
2022/01/31 05:11:53;;;;;;;22.73;3.47;;;5.70;99.90;;;;;;4996759;28;20129;-79
2022/01/31 05:14:19;;;;;;;13.88;2.90;;;6.70;99.90;;;;;;4979161;28;20388;-79
2022/01/31 05:16:45;;;;;;;13.90;2.80;;;5.40;99.90;;;;;;4963788;28;20050;-79
2022/01/31 05:19:11;;;;;;;11.40;2.60;;;5.40;99.90;;;;;;4996409;28;20050;-78
2022/01/31 05:21:38;;;;;;;13.93;2.90;;;5.40;99.90;;;;;;4980360;28;20042;-80
2022/01/31 05:24:04;;;;;;;13.95;2.60;;;5.50;99.90;;;;;;4985115;28;20046;-80
2022/01/31 05:26:30;;;;;;;12.23;2.65;;;5.50;99.90;;;;;;4983413;28;20046;-79
2022/01/31 05:28:56;;;;;;;19.23;3.42;;;5.50;99.90;;;;;;4983852;28;20160;-79
2022/01/31 05:31:22;;;;;;;15.65;3.15;;;5.50;99.90;;;;;;4976029;28;20049;-81
2022/01/31 05:33:47;;;;;;;13.68;2.50;;;5.50;99.90;;;;;;4974024;28;20042;-80
2022/01/31 05:36:13;;;;;;;12.80;2.53;;;5.50;99.90;;;;;;4969677;28;20053;-80
2022/01/31 05:38:40;;;;;;;18.35;2.85;;;5.80;99.90;;;;;;5002988;28;20049;-79
2022/01/31 05:41:10;;;;;;;15.15;2.60;;;5.60;99.90;;;;;;4951341;28;20061;-79
2022/01/31 05:43:37;;;;;;;17.33;2.75;;;5.60;99.90;;;;;;4984340;28;20042;-79
2022/01/31 05:46:03;;;;;;;16.58;3.42;;;5.60;99.90;;;;;;5000537;28;20038;-79
2022/01/31 05:48:29;;;;;;;18.23;3.20;;;6.00;99.90;;;;;;4975325;28;20104;-80
2022/01/31 05:50:55;;;;;;;20.13;3.30;;;5.50;99.90;;;;;;5001620;28;20046;-80
2022/01/31 05:53:22;;;;;;;17.85;3.45;;;5.50;99.90;;;;;;4990704;28;20061;-80
2022/01/31 05:55:48;;;;;;;24.05;3.85;;;5.50;99.90;;;;;;4990157;28;20479;-81
2022/01/31 05:58:14;;;;;;;17.55;3.22;;;5.40;99.90;;;;;;4973391;28;20053;-80
2022/01/31 06:00:40;;;;;;;18.23;3.67;;;5.40;99.90;;;;;;4999553;28;20081;-78
2022/01/31 06:03:06;;;;;;;20.77;3.20;;;5.40;99.90;;;;;;4972078;28;20552;-79
2022/01/31 06:05:31;;;;;;;14.32;2.50;;;5.40;99.90;;;;;;4984303;28;20046;-79
2022/01/31 06:07:57;;;;;;;14.93;2.97;;;5.40;99.90;;;;;;4969197;28;20050;-80
2022/01/31 06:10:23;;;;;;;13.57;3.45;;;5.70;99.90;;;;;;5000847;28;20050;-79
2022/01/31 06:12:51;;;;;;;15.70;3.20;;;5.40;99.90;;;;;;5000550;28;20047;-79
2022/01/31 06:15:18;;;;;;;18.67;3.47;;;5.40;99.90;;;;;;4961583;28;1135082;-79
2022/01/31 06:17:44;;;;;;;21.70;4.13;;;5.40;99.90;;;;;;5002466;28;20208;-81
2022/01/31 06:20:10;;;;;;;18.25;3.40;;;5.40;99.90;;;;;;5001282;28;20077;-79
2022/01/31 06:22:53;;;;;;;26.10;3.70;;;5.40;99.90;;;;;;4974806;28;20100;-79
2022/01/31 06:25:20;;;;;;;22.95;4.40;;;6.00;99.90;;;;;;4983018;28;20046;-81
2022/01/31 06:27:47;;;;;;;27.48;4.30;;;5.40;99.90;;;;;;5000807;28;20459;-80
2022/01/31 06:30:13;;;;;;;19.48;3.75;;;5.50;99.90;;;;;;5003279;28;20049;-79
2022/01/31 06:32:39;;;;;;;26.10;4.35;;;5.50;99.90;;;;;;5001260;28;20133;-80
2022/01/31 06:35:06;;;;;;;20.90;3.72;;;5.50;99.90;;;;;;4984872;28;20049;-79
2022/01/31 06:37:32;;;;;;;19.98;4.63;;;5.60;99.90;;;;;;5000775;28;20052;-78
2022/01/31 06:39:57;;;;;;;27.40;4.72;;;6.00;99.90;;;;;;4999935;28;20123;-77
2022/01/31 06:42:23;;;;;;;22.45;4.40;;;5.90;99.90;;;;;;4982179;28;20053;-80
2022/01/31 06:44:49;;;;;;;27.08;4.65;;;5.60;99.90;;;;;;4986781;28;20048;-79
2022/01/31 06:47:15;;;;;;;19.98;4.15;;;5.60;99.90;;;;;;4985118;28;20542;-79
2022/01/31 06:49:41;;;;;;;26.27;3.90;;;5.60;99.90;;;;;;4984128;28;20046;-79
2022/01/31 06:52:07;;;;;;;24.10;4.55;;;5.60;99.90;;;;;;4983887;28;20041;-79
2022/01/31 06:54:33;;;;;;;25.70;4.45;;;5.60;99.90;;;;;;4986650;28;20068;-80
2022/01/31 06:57:00;;;;;;;23.80;4.00;;;5.70;99.90;;;;;;5017554;28;20077;-79
2022/01/31 06:59:26;;;;;;;21.73;3.90;;;6.00;99.90;;;;;;5000069;28;20570;-78
2022/01/31 07:01:52;;;;;;;23.35;3.80;;;5.70;99.90;;;;;;4998254;28;20042;-80
2022/01/31 07:04:17;;;;;;;25.02;4.95;;;5.80;99.90;;;;;;4998890;28;20046;-81
2022/01/31 07:06:43;;;;;;;25.90;5.05;;;5.70;99.90;;;;;;4975422;28;20042;-80
2022/01/31 07:09:09;;;;;;;28.73;5.00;;;6.20;99.90;;;;;;4998934;28;20078;-78
2022/01/31 07:11:39;;;;;;;28.83;5.38;;;5.90;99.90;;;;;;4968378;28;20060;-80
2022/01/31 07:14:29;;;;;;;30.83;5.50;;;5.90;99.90;;;;;;4971137;28;20475;-79
2022/01/31 07:16:50;;;;;;;28.92;4.65;;;6.10;99.90;;;;;;4989939;28;20061;-79
2022/01/31 07:19:18;;;;;;;16.10;3.88;;;6.00;99.90;;;;;;4990378;28;20072;-78
2022/01/31 07:21:49;;;;;;;17.85;4.28;;;6.00;99.90;;;;;;4956476;28;20053;-77
2022/01/31 07:24:22;;;;;;;22.00;3.50;;;6.10;99.90;;;;;;4974001;28;20038;-79
2022/01/31 07:26:49;;;;;;;19.27;4.80;;;7.20;99.90;;;;;;4990919;28;20481;-81
2022/01/31 07:29:16;;;;;;;22.52;4.15;;;6.10;99.90;;;;;;4989187;28;20042;-80
2022/01/31 07:31:44;;;;;;;17.10;3.75;;;6.60;99.90;;;;;;4990783;28;20050;-80
2022/01/31 07:34:14;;;;;;;21.60;4.43;;;6.20;99.90;;;;;;4987888;28;20048;-80
2022/01/31 07:36:40;;;;;;;23.85;4.57;;;6.20;99.90;;;;;;5000958;28;20049;-80
2022/01/31 07:39:05;;;;;;;21.98;4.70;;;6.30;99.90;;;;;;4984900;28;20052;-80
2022/01/31 07:41:32;;;;;;;22.55;4.63;;;6.20;99.90;;;;;;4984046;28;20053;-82
2022/01/31 07:43:59;;;;;;;24.35;4.72;;;6.20;99.90;;;;;;4989304;28;20125;-80
2022/01/31 07:46:25;;;;;;;22.23;4.25;;;6.20;99.90;;;;;;4972888;28;20034;-81
2022/01/31 07:48:53;;;;;;;22.63;3.95;;;6.20;99.90;;;;;;5017937;28;20108;-82
2022/01/31 07:51:19;;;;;;;14.02;3.22;;;6.20;99.90;;;;;;5005867;28;20050;-81
2022/01/31 07:53:45;;;;;;;22.42;3.60;;;6.20;99.90;;;;;;4955664;28;20049;-83
2022/01/31 07:56:11;;;;;;;19.63;3.50;;;6.20;99.90;;;;;;4968975;28;20054;-80
2022/01/31 07:58:38;;;;;;;17.77;3.40;;;6.20;99.90;;;;;;4974543;28;20046;-81
2022/01/31 08:01:05;;;;;;;16.80;3.42;;;6.90;99.90;;;;;;4997297;28;20046;-82
2022/01/31 08:03:32;;;;;;;16.50;2.70;;;6.20;99.90;;;;;;4988586;28;20042;-81
2022/01/31 08:05:58;;;;;;;17.80;3.90;;;6.30;99.90;;;;;;4971935;28;20046;-82
2022/01/31 08:08:24;;;;;;;21.15;3.85;;;6.30;99.90;;;;;;4973272;28;20053;-80
2022/01/31 08:10:51;;;;;;;16.42;3.30;;;6.20;99.90;;;;;;5000213;28;20058;-81
2022/01/31 08:13:17;;;;;;;17.65;3.20;;;6.20;99.90;;;;;;4998636;28;20038;-80
2022/01/31 08:16:00;;;;;;;15.70;3.00;;;6.30;99.90;;;;;;4972068;28;20060;-81
2022/01/31 08:18:26;;;;;;;19.52;3.25;;;6.40;99.90;;;;;;4976305;28;20080;-81
2022/01/31 08:20:52;;;;;;;21.92;3.97;;;6.30;99.90;;;;;;4984859;28;20037;-80
2022/01/31 08:23:18;;;;;;;16.25;3.55;;;6.30;99.90;;;;;;4997137;28;20091;-80
2022/01/31 08:25:48;;;;;;;19.15;3.60;;;6.30;99.90;;;;;;4998795;28;20149;-80
2022/01/31 08:28:15;;;;;;;11.55;3.55;;;6.30;99.90;;;;;;4973128;28;20386;-80
2022/01/31 08:31:07;;;;;;;14.27;3.55;;;6.30;99.90;;;;;;4974025;28;20530;-81
2022/01/31 08:33:36;;;;;;;20.25;3.85;;;6.30;99.90;;;;;;4982971;28;20050;-80
2022/01/31 08:36:05;;;;;;;22.60;3.60;;;6.30;99.90;;;;;;4966194;28;20050;-80
2022/01/31 08:38:31;;;;;;;17.13;3.13;;;6.30;99.90;;;;;;5000686;28;20054;-80
2022/01/31 08:40:58;;;;;;;14.07;3.33;;;6.30;99.90;;;;;;4971310;28;20046;-81
2022/01/31 08:43:25;;;;;;;18.27;3.13;;;6.30;99.90;;;;;;4973726;28;20046;-80
2022/01/31 08:45:53;;;;;;;13.05;2.45;;;6.30;99.90;;;;;;4996688;28;20137;-80
2022/01/31 08:48:19;;;;;;;15.93;3.63;;;6.40;99.90;;;;;;4982212;28;20084;-80
2022/01/31 08:50:45;;;;;;;12.50;2.45;;;6.30;99.90;;;;;;4989910;28;20399;-80
2022/01/31 08:53:11;;;;;;;14.63;2.45;;;6.20;99.90;;;;;;5013268;28;20049;-80
2022/01/31 08:55:37;;;;;;;14.00;2.97;;;6.20;99.90;;;;;;4998198;28;20050;-80
2022/01/31 08:58:05;;;;;;;9.85;2.10;;;6.20;99.90;;;;;;4980382;28;20046;-80
2022/01/31 09:00:36;;;;;;;13.32;1.73;;;6.70;99.90;;;;;;4998749;28;20077;-80
2022/01/31 09:05:39;;;;;;;9.23;1.63;;;6.70;99.90;;;;;;5000918;28;20124;-80
2022/01/31 09:08:06;;;;;;;8.02;1.83;;;6.60;99.90;;;;;;4993080;28;20056;-80
2022/01/31 09:10:32;;;;;;;10.02;1.80;;;6.50;99.90;;;;;;5001531;28;20527;-80
2022/01/31 09:12:58;;;;;;;9.95;1.85;;;6.40;99.90;;;;;;4975747;28;20089;-80
2022/01/31 09:15:24;;;;;;;12.35;1.70;;;6.40;99.90;;;;;;5007331;28;20097;-80
2022/01/31 09:17:50;;;;;;;8.30;1.60;;;6.40;99.90;;;;;;4984446;28;20104;-80
2022/01/31 09:20:18;;;;;;;9.95;2.08;;;6.30;99.90;;;;;;4993144;28;20108;-81
2022/01/31 09:22:43;;;;;;;9.80;2.03;;;6.20;99.90;;;;;;4985965;28;20042;-79
2022/01/31 09:25:11;;;;;;;7.50;1.45;;;6.10;99.90;;;;;;4982564;28;20501;-80
2022/01/31 09:27:37;;;;;;;7.30;1.70;;;6.10;99.90;;;;;;4985469;28;20484;-80
2022/01/31 09:30:09;;;;;;;10.20;2.00;;;6.20;99.90;;;;;;5001841;28;20057;-81
2022/01/31 09:32:36;;;;;;;12.18;2.20;;;6.00;99.90;;;;;;4985777;28;20042;-79
2022/01/31 09:35:02;;;;;;;11.80;2.40;;;6.00;99.90;;;;;;4990868;28;20054;-80
2022/01/31 09:37:28;;;;;;;10.70;1.90;;;5.90;99.90;;;;;;4969033;28;20081;-79
2022/01/31 09:40:01;;;;;;;10.35;2.22;;;5.90;99.90;;;;;;4975190;28;20081;-79
2022/01/31 09:42:42;;;;;;;15.23;2.10;;;5.80;99.90;;;;;;5002832;28;20249;-80
2022/01/31 09:45:33;;;;;;;17.63;2.72;;;5.80;99.90;;;;;;4984242;28;20050;-81
2022/01/31 09:50:27;;;;;;;27.52;4.57;;;6.30;99.90;;;;;;5001835;28;20042;-80
2022/01/31 09:52:54;;;;;;;24.35;5.03;;;6.40;99.90;;;;;;4985655;28;20050;-80
2022/01/31 09:55:21;;;;;;;22.13;4.82;;;5.90;99.90;;;;;;5001087;28;20136;-80
2022/01/31 09:57:48;;;;;;;19.95;3.83;;;6.00;99.90;;;;;;4971191;28;20105;-80
2022/01/31 10:00:14;;;;;;;28.42;5.35;;;6.00;99.90;;;;;;5000884;28;20949;-80
2022/01/31 10:02:40;;;;;;;24.02;5.00;;;6.00;99.90;;;;;;5001150;28;20510;-80
2022/01/31 10:05:07;;;;;;;29.08;4.72;;;6.10;99.90;;;;;;4976124;28;20470;-81
2022/01/31 10:07:44;;;;;;;27.65;6.07;;;6.10;99.90;;;;;;4953770;28;20467;-82
2022/01/31 10:10:22;;;;;;;35.55;6.05;;;6.10;99.90;;;;;;5003776;28;20104;-84
2022/01/31 10:18:04;;;;;;;29.48;5.82;;;6.30;99.90;;;;;;5000696;28;20038;-79
2022/01/31 10:20:32;;;;;;;27.77;5.35;;;6.30;99.90;;;;;;4984081;28;20050;-80
2022/01/31 10:23:09;;;;;;;27.73;5.82;;;6.50;99.90;;;;;;4983994;28;20208;-80
2022/01/31 10:25:40;;;;;;;29.27;4.75;;;6.30;99.90;;;;;;4982686;28;20100;-80
2022/01/31 10:28:15;;;;;;;25.63;5.15;;;6.30;99.90;;;;;;4983611;28;20054;-82
2022/01/31 10:30:41;;;;;;;28.33;5.35;;;6.40;99.90;;;;;;4991638;28;20086;-80
2022/01/31 10:33:09;;;;;;;33.55;6.50;;;6.50;99.90;;;;;;4973956;28;20049;-81
2022/01/31 10:35:37;;;;;;;28.40;5.97;;;6.50;99.90;;;;;;4974899;28;20135;-80
2022/01/31 10:38:11;;;;;;;29.20;6.10;;;6.50;99.90;;;;;;4976630;28;20054;-84
2022/01/31 10:50:40;;;;;;;33.00;6.68;;;6.80;99.90;;;;;;5007675;28;20555;-82
2022/01/31 10:52:25;;;;;;;29.13;5.32;;;6.90;99.90;;;;;;4999873;28;20050;-80
2022/01/31 10:54:53;;;;;;;34.15;6.65;;;7.00;99.90;;;;;;4975848;28;20056;-81
2022/01/31 10:57:21;;;;;;;34.53;6.80;;;6.90;99.90;;;;;;4986892;28;20121;-81
2022/01/31 10:59:50;;;;;;;34.67;6.82;;;6.80;99.90;;;;;;4985989;28;20061;-80
2022/01/31 11:02:18;;;;;;;38.72;6.72;;;6.70;99.90;;;;;;4985197;28;20080;-80
2022/01/31 11:04:44;;;;;;;44.58;7.25;;;8.20;99.90;;;;;;5000107;28;20038;-81
2022/01/31 11:07:13;;;;;;;35.10;6.50;;;6.80;99.90;;;;;;4974137;28;20046;-84
2022/01/31 11:09:40;;;;;;;33.88;5.72;;;6.80;99.90;;;;;;4987436;28;20061;-78
2022/01/31 11:12:08;;;;;;;28.77;6.25;;;7.60;99.90;;;;;;5019273;28;20091;-80
2022/01/31 11:14:45;;;;;;;25.80;5.30;;;6.80;99.90;;;;;;5000064;28;20050;-79
2022/01/31 11:17:16;;;;;;;29.55;6.38;;;6.80;99.90;;;;;;5015243;28;20427;-80
2022/01/31 11:19:47;;;;;;;29.58;5.55;;;6.80;99.90;;;;;;5000217;28;20046;-80
2022/01/31 11:22:16;;;;;;;31.77;6.45;;;6.90;99.90;;;;;;4999344;28;20046;-79
2022/01/31 11:24:48;;;;;;;37.55;6.75;;;6.90;99.90;;;;;;4982230;28;20589;-79
2022/01/31 11:27:17;;;;;;;29.90;6.50;;;7.00;99.90;;;;;;4999004;28;20069;-79
2022/01/31 11:29:48;;;;;;;37.85;6.35;;;6.90;99.90;;;;;;4990792;28;20175;-80
2022/01/31 11:32:14;;;;;;;32.42;6.85;;;7.00;99.90;;;;;;4981964;28;20056;-81
2022/01/31 11:34:43;;;;;;;33.22;6.18;;;7.10;99.90;;;;;;4998407;28;20038;-79
2022/01/31 11:37:11;;;;;;;34.67;6.78;;;7.20;99.90;;;;;;4998923;28;20123;-79
2022/01/31 11:39:39;;;;;;;32.22;4.97;;;8.50;99.90;;;;;;4999355;28;20550;-78
2022/01/31 11:42:06;;;;;;;25.73;4.80;;;7.80;99.90;;;;;;5016192;28;20057;-79
2022/01/31 11:44:38;;;;;;;20.35;4.55;;;7.80;99.90;;;;;;4955412;28;20038;-80
2022/01/31 11:47:06;;;;;;;21.40;4.50;;;7.90;99.90;;;;;;5015325;28;20484;-80
2022/01/31 11:49:46;;;;;;;19.38;4.43;;;7.90;99.90;;;;;;5013435;28;20405;-79
2022/01/31 11:52:13;;;;;;;26.95;5.32;;;7.90;99.90;;;;;;4998202;28;20095;-78
2022/01/31 11:54:53;;;;;;;26.05;5.15;;;7.90;99.90;;;;;;5014079;28;20079;-79
2022/01/31 11:57:26;;;;;;;24.92;4.45;;;7.90;99.90;;;;;;4997971;28;20232;-78
2022/01/31 12:00:00;;;;;;;27.40;4.95;;;7.70;99.90;;;;;;5016443;28;20157;-78
2022/01/31 12:02:32;;;;;;;24.55;4.80;;;7.70;99.90;;;;;;4990655;28;20079;-78
2022/01/31 12:05:06;;;;;;;27.02;4.45;;;7.60;99.90;;;;;;5000196;28;20046;-77
2022/01/31 12:07:39;;;;;;;28.77;5.32;;;7.50;99.90;;;;;;4981605;28;20065;-79
2022/01/31 12:10:21;;;;;;;29.17;5.82;;;7.40;99.90;;;;;;4998638;28;20086;-78
2022/01/31 12:12:58;;;;;;;33.88;5.93;;;7.30;99.90;;;;;;4990496;28;20134;-77
2022/01/31 12:16:02;;;;;;;28.90;5.15;;;7.20;99.90;;;;;;4980231;28;20089;-78
2022/01/31 12:18:46;;;;;;;25.02;5.70;;;7.20;99.90;;;;;;4975896;28;20137;-78
2022/01/31 12:24:10;;;;;;;24.88;4.43;;;7.30;99.90;;;;;;4999250;28;20054;-78
2022/01/31 12:26:45;;;;;;;29.75;5.65;;;7.30;99.90;;;;;;4997851;28;20386;-78
2022/01/31 12:29:13;;;;;;;25.77;4.55;;;7.30;99.90;;;;;;5014494;28;20062;-77
2022/01/31 12:31:48;;;;;;;25.42;4.95;;;7.30;99.90;;;;;;4998088;28;20093;-78
2022/01/31 12:34:17;;;;;;;28.75;5.30;;;7.40;99.90;;;;;;4989050;28;20054;-79
2022/01/31 12:36:42;;;;;;;29.73;5.38;;;7.30;99.90;;;;;;4990328;28;20113;-78
2022/01/31 12:39:31;;;;;;;24.45;5.03;;;7.30;99.90;;;;;;4998054;28;20057;-78
2022/01/31 12:42:25;;;;;;;32.15;5.45;;;7.40;99.90;;;;;;4998440;28;20089;-78
2022/01/31 12:44:46;;;;;;;33.90;6.25;;;7.40;99.90;;;;;;4990758;28;20159;-78
2022/01/31 12:47:20;;;;;;;29.52;6.00;;;7.30;99.90;;;;;;4973019;28;20722;-79
2022/01/31 12:50:22;;;;;;;23.50;5.40;;;7.30;99.90;;;;;;4982918;28;20038;-79
2022/01/31 12:52:47;;;;;;;21.83;4.93;;;7.20;99.90;;;;;;4982191;28;20574;-78
2022/01/31 12:55:14;;;;;;;24.05;5.28;;;7.20;99.90;;;;;;5002403;28;20041;-78
2022/01/31 12:57:51;;;;;;;25.25;4.95;;;7.20;99.90;;;;;;4971828;28;20141;-78
2022/01/31 13:00:40;;;;;;;25.42;4.55;;;7.20;99.90;;;;;;4989387;28;20085;-78
2022/01/31 13:03:10;;;;;;;25.92;4.97;;;7.20;99.90;;;;;;4999613;28;20054;-78
2022/01/31 13:05:40;;;;;;;25.58;5.43;;;7.20;99.90;;;;;;4984003;28;20057;-79
2022/01/31 13:08:25;;;;;;;32.95;5.60;;;7.20;99.90;;;;;;4971162;28;20100;-78
2022/01/31 13:10:52;;;;;;;30.80;5.65;;;7.10;99.90;;;;;;4990541;28;20136;-78
2022/01/31 13:13:33;;;;;;;32.13;6.07;;;7.10;99.90;;;;;;4972816;28;20051;-79
2022/01/31 13:16:10;;;;;;;28.90;5.13;;;7.10;99.90;;;;;;4981687;28;20494;-78
2022/01/31 13:18:36;;;;;;;27.85;5.30;;;7.10;99.90;;;;;;4999467;28;20372;-78
2022/01/31 13:21:08;;;;;;;35.22;5.85;;;7.00;99.90;;;;;;4997754;28;20043;-79